createdAt,value
2019-03-31T00:02:53.808Z,101521.22
2019-03-31T00:06:10.898Z,101526.43
2019-03-31T00:09:18.767Z,101522.47
2019-03-31T00:12:36.484Z,101530.84
2019-03-31T00:15:44.262Z,101525.91
2019-03-31T00:18:52.036Z,101532.74
2019-03-31T00:22:09.408Z,101523.92
2019-03-31T00:25:17.313Z,101532.22
2019-03-31T00:28:25.171Z,101531.25
2019-03-31T00:31:42.219Z,101533.19
2019-03-31T00:34:50.060Z,101542.84
2019-03-31T00:40:55.598Z,101535.73
2019-03-31T00:44:03.445Z,101536.84
2019-03-31T00:47:11.224Z,101534.73
2019-03-31T00:50:28.373Z,101533.34
2019-03-31T00:53:36.354Z,101540.59
2019-03-31T00:56:44.098Z,101542.17
2019-03-31T01:00:01.093Z,101541.19
2019-03-31T01:03:09.248Z,101536.34
2019-03-31T01:06:18.112Z,101543.25
2019-03-31T01:09:29.357Z,101543.05
2019-03-31T01:12:37.401Z,101546.89
2019-03-31T01:15:45.349Z,101549.16
2019-03-31T01:18:53.358Z,101556.20
2019-03-31T01:22:01.186Z,101553.67
2019-03-31T01:25:10.076Z,101556.72
2019-03-31T01:28:17.254Z,101557.03
2019-03-31T01:31:28.196Z,101558.27
2019-03-31T01:34:34.802Z,101558.71
2019-03-31T01:37:42.832Z,101559.34
2019-03-31T01:40:50.618Z,101558.02
2019-03-31T01:44:07.972Z,101561.71
2019-03-31T01:47:15.905Z,101565.95
2019-03-31T01:50:33.454Z,101564.45
2019-03-31T01:53:41.402Z,101568.11
2019-03-31T01:56:47.823Z,101573.68
2019-03-31T01:59:55.488Z,101564.58
2019-03-31T02:03:03.950Z,101565.19
2019-03-31T02:06:11.865Z,101560.30
2019-03-31T02:09:29.576Z,101563.22
2019-03-31T02:12:37.263Z,101564.27
2019-03-31T02:15:45.092Z,101569.00
2019-03-31T02:19:02.008Z,101561.63
2019-03-31T02:22:10.112Z,101564.02
2019-03-31T02:25:17.941Z,101565.04
2019-03-31T02:28:40.799Z,101566.23
2019-03-31T02:31:48.545Z,101564.95
2019-03-31T02:34:56.374Z,101561.45
2019-03-31T02:38:13.576Z,101560.41
2019-03-31T02:41:21.335Z,101569.41
2019-03-31T02:44:29.105Z,101562.40
2019-03-31T02:47:46.697Z,101558.50
2019-03-31T02:50:54.657Z,101573.24
2019-03-31T02:54:02.400Z,101570.89
2019-03-31T02:57:10.582Z,101575.00
2019-03-31T03:00:18.424Z,101576.78
2019-03-31T03:03:27.344Z,101582.91
2019-03-31T03:06:36.905Z,101588.69
2019-03-31T03:09:46.454Z,101584.36
2019-03-31T03:12:54.734Z,101585.38
2019-03-31T03:16:20.968Z,101586.66
2019-03-31T03:19:28.839Z,101592.31
2019-03-31T03:22:36.682Z,101594.34
2019-03-31T03:25:55.638Z,101599.63
2019-03-31T03:28:54.184Z,101595.80
2019-03-31T03:32:01.871Z,101599.36
2019-03-31T03:35:19.167Z,101603.24
2019-03-31T03:38:27.025Z,101603.99
2019-03-31T03:41:34.884Z,101607.39
2019-03-31T03:44:51.957Z,101599.23
2019-03-31T03:47:59.800Z,101607.83
2019-03-31T03:51:07.731Z,101613.92
2019-03-31T03:54:24.837Z,101609.95
2019-03-31T03:57:32.700Z,101618.55
2019-03-31T04:00:40.708Z,101629.03
2019-03-31T04:03:48.630Z,101625.15
2019-03-31T04:06:56.694Z,101629.19
2019-03-31T04:10:05.186Z,101631.59
2019-03-31T04:13:22.344Z,101631.11
2019-03-31T04:16:30.243Z,101634.27
2019-03-31T04:19:38.243Z,101635.27
2019-03-31T04:22:55.049Z,101634.87
2019-03-31T04:26:03.133Z,101642.18
2019-03-31T04:29:10.150Z,101649.09
2019-03-31T04:32:18.006Z,101654.17
2019-03-31T04:35:35.108Z,101651.24
2019-03-31T04:38:42.977Z,101660.89
2019-03-31T04:41:50.792Z,101659.84
2019-03-31T04:44:57.746Z,101665.75
2019-03-31T04:48:05.832Z,101666.38
2019-03-31T04:51:13.674Z,101669.66
2019-03-31T04:54:22.683Z,101669.91
2019-03-31T04:57:39.925Z,101672.14
2019-03-31T05:00:48.099Z,101677.52
2019-03-31T05:04:04.364Z,101679.75
2019-03-31T05:07:05.503Z,101687.13
2019-03-31T05:10:13.387Z,101690.73
2019-03-31T05:13:21.305Z,101700.85
2019-03-31T05:16:29.182Z,101704.66
2019-03-31T05:19:35.813Z,101707.78
2019-03-31T05:22:43.582Z,101716.93
2019-03-31T05:26:00.693Z,101721.10
2019-03-31T05:29:08.395Z,101723.79
2019-03-31T05:32:16.250Z,101730.05
2019-03-31T05:35:33.630Z,101735.19
2019-03-31T05:38:41.391Z,101738.52
2019-03-31T05:41:49.311Z,101750.97
2019-03-31T05:45:06.467Z,101755.80
2019-03-31T05:48:14.532Z,101768.73
2019-03-31T05:51:22.362Z,101773.31
2019-03-31T05:54:30.381Z,101768.79
2019-03-31T05:57:38.279Z,101777.80
2019-03-31T06:00:55.115Z,101785.28
2019-03-31T06:04:03.118Z,101785.72
2019-03-31T06:07:10.947Z,101787.84
2019-03-31T06:10:27.937Z,101788.17
2019-03-31T06:13:35.946Z,101793.26
2019-03-31T06:16:43.667Z,101797.50
2019-03-31T06:20:00.762Z,101800.95
2019-03-31T06:23:08.715Z,101800.17
2019-03-31T06:26:16.891Z,101801.86
2019-03-31T06:29:24.576Z,101799.96
2019-03-31T06:32:32.347Z,101803.39
2019-03-31T06:35:49.448Z,101802.48
2019-03-31T06:38:57.570Z,101805.01
2019-03-31T06:42:05.524Z,101810.03
2019-03-31T06:45:13.416Z,101812.99
2019-03-31T06:48:21.361Z,101826.89
2019-03-31T06:51:29.337Z,101826.27
2019-03-31T06:54:37.002Z,101829.08
2019-03-31T06:57:54.270Z,101839.86
2019-03-31T07:01:02.536Z,101853.08
2019-03-31T07:04:10.271Z,101858.97
2019-03-31T07:07:18.165Z,101853.48
2019-03-31T07:10:25.996Z,101850.77
2019-03-31T07:13:43.029Z,101853.53
2019-03-31T07:16:50.939Z,101860.77
2019-03-31T07:19:58.608Z,101873.22
2019-03-31T07:23:15.805Z,101875.68
2019-03-31T07:26:23.463Z,101873.22
2019-03-31T07:29:31.584Z,101880.24
2019-03-31T07:32:54.535Z,101892.94
2019-03-31T07:36:02.456Z,101895.84
2019-03-31T07:39:10.630Z,101902.54
2019-03-31T07:42:18.218Z,101900.45
2019-03-31T07:45:25.938Z,101905.19
2019-03-31T07:48:33.781Z,101911.66
2019-03-31T07:51:41.548Z,101913.61
2019-03-31T07:54:49.281Z,101918.13
2019-03-31T07:57:57.018Z,101923.19
2019-03-31T08:01:04.842Z,101924.22
2019-03-31T08:04:12.798Z,101923.34
2019-03-31T08:07:18.963Z,101927.30
2019-03-31T08:10:27.069Z,101928.09
2019-03-31T08:13:44.176Z,101927.90
2019-03-31T08:16:52.048Z,101923.59
2019-03-31T08:19:59.892Z,101929.86
2019-03-31T08:23:17.091Z,101935.81
2019-03-31T08:26:24.932Z,101944.88
2019-03-31T08:29:32.743Z,101953.89
2019-03-31T08:32:49.909Z,101949.48
2019-03-31T08:35:57.869Z,101956.39
2019-03-31T08:39:08.347Z,101963.38
2019-03-31T08:42:16.190Z,101957.44
2019-03-31T08:45:33.042Z,101969.40
2019-03-31T08:48:41.037Z,101978.36
2019-03-31T08:51:49.030Z,101972.66
2019-03-31T08:54:57.154Z,101980.89
2019-03-31T08:58:05.029Z,101981.77
2019-03-31T09:01:14.857Z,101986.41
2019-03-31T09:04:22.516Z,101986.52
2019-03-31T09:07:41.905Z,101987.09
2019-03-31T09:10:49.055Z,101990.38
2019-03-31T09:13:56.833Z,101985.13
2019-03-31T09:17:13.837Z,101993.05
2019-03-31T09:20:21.619Z,102000.96
2019-03-31T09:23:27.939Z,102007.36
2019-03-31T09:26:45.095Z,102003.77
2019-03-31T09:29:52.853Z,101991.26
2019-03-31T09:33:00.730Z,102001.09
2019-03-31T09:36:17.895Z,101997.48
2019-03-31T09:39:25.750Z,102006.68
2019-03-31T09:42:33.498Z,102006.72
2019-03-31T09:45:50.695Z,101995.12
2019-03-31T09:49:07.886Z,101998.89
2019-03-31T09:52:15.587Z,102003.72
2019-03-31T09:55:23.497Z,101998.63
2019-03-31T09:58:40.645Z,101998.59
2019-03-31T10:01:48.392Z,102011.88
2019-03-31T10:04:56.345Z,101999.83
2019-03-31T10:08:13.443Z,102004.13
2019-03-31T10:11:21.122Z,102002.36
2019-03-31T10:14:28.901Z,102010.41
2019-03-31T10:17:36.726Z,102015.83
2019-03-31T10:20:44.722Z,102005.91
2019-03-31T10:23:52.566Z,102006.90
2019-03-31T10:27:00.400Z,102011.12
2019-03-31T10:30:08.826Z,102018.93
2019-03-31T10:33:16.570Z,102015.53
2019-03-31T10:36:24.552Z,102012.64
2019-03-31T10:39:32.518Z,102019.77
2019-03-31T10:42:40.402Z,102024.86
2019-03-31T10:45:57.391Z,102030.81
2019-03-31T10:49:05.533Z,102027.22
2019-03-31T10:52:13.458Z,102025.27
2019-03-31T10:55:21.113Z,102027.27
2019-03-31T10:58:29.055Z,102027.14
2019-03-31T11:01:46.220Z,102027.03
2019-03-31T11:04:54.078Z,102033.73
2019-03-31T11:08:01.971Z,102028.52
2019-03-31T11:11:19.108Z,102020.64
2019-03-31T11:14:26.886Z,102037.08
2019-03-31T11:17:35.221Z,102034.77
2019-03-31T11:20:43.049Z,102033.44
2019-03-31T11:23:50.820Z,102036.36
2019-03-31T11:27:07.746Z,102020.53
2019-03-31T11:30:15.679Z,102031.92
2019-03-31T11:33:23.615Z,102033.59
2019-03-31T11:36:31.394Z,102029.75
2019-03-31T11:39:39.331Z,102034.21
2019-03-31T11:42:56.617Z,102037.81
2019-03-31T11:46:04.440Z,102032.30
2019-03-31T11:49:12.300Z,102027.09
2019-03-31T11:52:29.315Z,102036.73
2019-03-31T11:55:37.108Z,102042.72
2019-03-31T11:58:44.767Z,102038.56
2019-03-31T12:01:52.731Z,102045.06
2019-03-31T12:05:00.597Z,102043.96
2019-03-31T12:08:08.465Z,102055.19
2019-03-31T12:11:16.261Z,102062.22
2019-03-31T12:14:24.837Z,102056.94
2019-03-31T12:17:32.583Z,102059.53
2019-03-31T12:20:40.497Z,102057.10
2019-03-31T12:23:48.342Z,102050.41
2019-03-31T12:26:56.007Z,102052.89
2019-03-31T12:30:04.181Z,102056.81
2019-03-31T12:33:12.012Z,102056.81
2019-03-31T12:36:29.265Z,102058.31
2019-03-31T12:39:46.345Z,102062.14
2019-03-31T12:42:54.299Z,102054.70
2019-03-31T12:46:02.272Z,102063.40
2019-03-31T12:49:09.975Z,102061.17
2019-03-31T12:52:17.743Z,102062.70
2019-03-31T12:55:35.091Z,102058.60
2019-03-31T12:58:42.899Z,102054.30
2019-03-31T13:01:50.667Z,102059.28
2019-03-31T13:05:08.310Z,102057.95
2019-03-31T13:08:16.071Z,102060.98
2019-03-31T13:11:23.952Z,102051.13
2019-03-31T13:14:41.012Z,102053.81
2019-03-31T13:17:48.876Z,102057.14
2019-03-31T13:20:56.791Z,102049.83
2019-03-31T13:24:13.798Z,102054.86
2019-03-31T13:27:21.573Z,102054.88
2019-03-31T13:30:29.234Z,102054.36
2019-03-31T13:33:37.174Z,102052.85
2019-03-31T13:36:45.123Z,102047.98
2019-03-31T13:39:53.024Z,102049.05
2019-03-31T13:43:00.907Z,102056.44
2019-03-31T13:46:08.847Z,102060.44
2019-03-31T13:49:25.949Z,102057.30
2019-03-31T13:52:33.872Z,102041.95
2019-03-31T13:55:41.773Z,102049.08
2019-03-31T13:58:58.772Z,102054.59
2019-03-31T14:02:06.568Z,102053.80
2019-03-31T14:05:14.367Z,102059.75
2019-03-31T14:08:32.931Z,102060.06
2019-03-31T14:11:40.830Z,102048.84
2019-03-31T14:14:48.519Z,102058.28
2019-03-31T14:18:05.872Z,102058.55
2019-03-31T14:21:13.685Z,102060.26
2019-03-31T14:24:21.352Z,102057.20
2019-03-31T14:27:38.621Z,102045.38
2019-03-31T14:30:46.471Z,102048.69
2019-03-31T14:33:54.383Z,102047.34
2019-03-31T14:37:11.438Z,102043.80
2019-03-31T14:40:19.144Z,102050.87
2019-03-31T14:43:28.145Z,102044.09
2019-03-31T14:46:35.971Z,102045.36
2019-03-31T14:49:43.905Z,102050.31
2019-03-31T14:52:51.776Z,102046.85
2019-03-31T14:56:09.060Z,102045.73
2019-03-31T14:59:16.909Z,102055.05
2019-03-31T15:02:24.758Z,102041.91
2019-03-31T15:05:41.808Z,102050.02
2019-03-31T15:08:54.455Z,102044.48
2019-03-31T15:11:59.543Z,102044.30
2019-03-31T15:15:07.507Z,102040.66
2019-03-31T15:18:15.167Z,102033.27
2019-03-31T15:21:32.352Z,102028.84
2019-03-31T15:24:40.175Z,102034.38
2019-03-31T15:27:48.135Z,102031.77
2019-03-31T15:30:56.195Z,102032.85
2019-03-31T15:34:04.068Z,102034.03
2019-03-31T15:37:21.182Z,102038.15
2019-03-31T15:40:30.218Z,102036.42
2019-03-31T15:43:38.089Z,102036.97
2019-03-31T15:46:45.845Z,102027.91
2019-03-31T15:49:53.768Z,102034.69
2019-03-31T15:53:01.611Z,102036.91
2019-03-31T15:56:18.734Z,102040.88
2019-03-31T15:59:26.534Z,102043.53
2019-03-31T16:02:34.339Z,102035.98
2019-03-31T16:05:51.609Z,102037.68
2019-03-31T16:08:59.059Z,102041.64
2019-03-31T16:12:06.494Z,102046.28
2019-03-31T16:15:13.907Z,102051.64
2019-03-31T16:18:21.042Z,102044.63
2019-03-31T16:21:28.266Z,102045.40
2019-03-31T16:24:41.257Z,102040.14
2019-03-31T16:27:48.495Z,102037.27
2019-03-31T16:30:55.724Z,102033.93
2019-03-31T16:34:02.954Z,102032.39
2019-03-31T16:37:10.217Z,102036.49
2019-03-31T16:40:17.534Z,102028.99
2019-03-31T16:43:24.666Z,102033.66
2019-03-31T16:46:32.094Z,102040.00
2019-03-31T16:49:39.460Z,102047.58
2019-03-31T16:52:45.697Z,102046.60
2019-03-31T16:56:02.184Z,102049.10
2019-03-31T16:59:09.476Z,102059.97
2019-03-31T17:02:26.168Z,102063.12
2019-03-31T17:05:33.353Z,102061.67
2019-03-31T17:08:40.596Z,102063.48
2019-03-31T17:11:47.757Z,102062.47
2019-03-31T17:15:05.356Z,102063.47
2019-03-31T17:18:12.612Z,102068.11
2019-03-31T17:21:19.884Z,102068.42
2019-03-31T17:24:25.658Z,102065.48
2019-03-31T17:27:33.123Z,102063.22
2019-03-31T17:30:40.372Z,102067.18
2019-03-31T17:33:47.505Z,102060.84
2019-03-31T17:36:54.674Z,102067.54
2019-03-31T17:40:06.225Z,102071.48
2019-03-31T17:43:11.152Z,102070.69
2019-03-31T17:46:28.071Z,102070.61
2019-03-31T17:49:44.552Z,102075.77
2019-03-31T17:52:51.845Z,102080.66
2019-03-31T17:56:08.615Z,102085.47
2019-03-31T17:59:15.701Z,102085.42
2019-03-31T18:02:22.955Z,102088.33
2019-03-31T18:05:30.177Z,102084.53
2019-03-31T18:08:46.851Z,102083.45
2019-03-31T18:11:54.115Z,102095.28
2019-03-31T18:15:11.021Z,102097.94
2019-03-31T18:18:27.820Z,102100.55
2019-03-31T18:21:44.575Z,102107.52
2019-03-31T18:25:01.277Z,102108.14
2019-03-31T18:28:08.455Z,102118.81
2019-03-31T18:31:15.783Z,102118.73
2019-03-31T18:34:22.982Z,102125.45
2019-03-31T18:37:30.215Z,102130.56
2019-03-31T18:40:47.401Z,102127.05
2019-03-31T18:43:54.703Z,102131.09
2019-03-31T18:47:02.197Z,102138.30
2019-03-31T18:50:09.639Z,102143.98
2019-03-31T18:53:29.869Z,102144.28
2019-03-31T18:56:59.074Z,102144.17
2019-03-31T19:00:33.369Z,102146.23
2019-03-31T19:04:02.446Z,102147.96
2019-03-31T19:07:43.102Z,102153.32
2019-03-31T19:11:08.421Z,102160.78
2019-03-31T19:14:32.308Z,102168.41
2019-03-31T19:18:16.451Z,102163.08
2019-03-31T19:21:37.507Z,102176.27
2019-03-31T19:25:10.056Z,102178.59
2019-03-31T19:28:50.808Z,102189.80
2019-03-31T19:32:39.868Z,102187.60
2019-03-31T19:36:12.219Z,102181.20
2019-03-31T19:39:54.188Z,102188.55
2019-03-31T19:43:34.277Z,102191.86
2019-03-31T19:47:12.426Z,102191.52
2019-03-31T19:50:46.948Z,102201.89
2019-03-31T19:54:13.183Z,102204.11
2019-03-31T19:57:36.734Z,102209.05
2019-03-31T20:01:05.913Z,102203.52
2019-03-31T20:04:31.403Z,102209.97
2019-03-31T20:07:49.660Z,102213.08
2019-03-31T20:11:07.708Z,102217.35
2019-03-31T20:14:33.483Z,102218.89
2019-03-31T20:18:13.855Z,102223.58
2019-03-31T20:21:52.858Z,102223.63
2019-03-31T20:25:10.657Z,102222.75
2019-03-31T20:28:45.527Z,102223.27
2019-03-31T20:32:14.773Z,102224.61
2019-03-31T20:35:52.979Z,102227.39
2019-03-31T20:39:55.758Z,102230.66
2019-03-31T20:43:25.761Z,102228.14
2019-03-31T20:46:50.009Z,102225.56
2019-03-31T20:49:57.446Z,102226.19
2019-03-31T20:53:14.147Z,102225.64
2019-03-31T20:56:21.334Z,102227.33
2019-03-31T20:59:38.208Z,102236.09
2019-03-31T21:02:54.776Z,102233.50
2019-03-31T21:06:02.097Z,102236.97
2019-03-31T21:09:20.257Z,102236.48
2019-03-31T21:12:27.492Z,102239.72
2019-03-31T21:15:34.697Z,102243.86
2019-03-31T21:18:41.988Z,102243.55
2019-03-31T21:21:58.715Z,102243.55
2019-03-31T21:25:15.546Z,102254.02
2019-03-31T21:28:22.772Z,102255.68
2019-03-31T21:31:29.935Z,102250.55
2019-03-31T21:34:46.721Z,102252.34
2019-03-31T21:38:03.654Z,102248.75
2019-03-31T21:41:20.301Z,102256.25
2019-03-31T21:44:27.447Z,102264.00
2019-03-31T21:47:34.688Z,102260.35
2019-03-31T21:50:41.915Z,102267.91
2019-03-31T21:53:49.063Z,102266.22
2019-03-31T21:56:56.358Z,102267.81
2019-03-31T22:00:04.154Z,102271.33
2019-03-31T22:03:11.382Z,102267.53
2019-03-31T22:06:18.707Z,102268.45
2019-03-31T22:09:25.901Z,102266.88
2019-03-31T22:12:33.206Z,102265.76
2019-03-31T22:15:40.531Z,102258.96
2019-03-31T22:18:47.836Z,102267.95
2019-03-31T22:21:55.164Z,102276.14
2019-03-31T22:25:02.498Z,102278.38
2019-03-31T22:28:09.868Z,102274.97
2019-03-31T22:31:17.210Z,102280.47
2019-03-31T22:34:33.818Z,102272.36
2019-03-31T22:37:54.727Z,102271.14
2019-03-31T22:41:11.232Z,102275.79
2019-03-31T22:44:28.093Z,102280.40
2019-03-31T22:50:46.541Z,102285.61
2019-03-31T22:53:53.767Z,102294.09
2019-03-31T22:57:01.102Z,102291.16
2019-03-31T23:00:28.244Z,102281.80
2019-03-31T23:03:35.571Z,102285.71
2019-03-31T23:06:42.819Z,102293.75
2019-03-31T23:09:50.040Z,102291.18
2019-03-31T23:12:57.295Z,102285.71
2019-03-31T23:16:04.622Z,102283.12
2019-03-31T23:19:11.926Z,102283.57
2019-03-31T23:22:19.165Z,102281.45
2019-03-31T23:25:26.395Z,102279.75
2019-03-31T23:28:35.592Z,102283.19
2019-03-31T23:31:52.084Z,102274.69
2019-03-31T23:34:59.592Z,102285.75
2019-03-31T23:38:16.072Z,102279.39
2019-03-31T23:41:23.394Z,102285.77
2019-03-31T23:44:40.070Z,102281.54
2019-03-31T23:47:47.306Z,102279.42
2019-03-31T23:50:54.439Z,102278.16
2019-03-31T23:54:01.779Z,102268.83
2019-03-31T23:57:08.928Z,102276.41
